createdAt,value
2022-10-19T00:02:09.122Z,1.95
2022-10-19T00:04:35.544Z,1.40
2022-10-19T00:07:01.886Z,1.38
2022-10-19T00:09:29.136Z,1.55
2022-10-19T00:11:56.217Z,1.85
2022-10-19T00:14:23.732Z,1.33
2022-10-19T00:16:52.269Z,1.30
2022-10-19T00:19:22.073Z,1.33
2022-10-19T00:24:20.507Z,2.60
2022-10-19T00:26:47.172Z,1.02
2022-10-19T00:29:14.554Z,1.30
2022-10-19T00:31:41.777Z,1.30
2022-10-19T00:34:08.257Z,1.35
2022-10-19T00:36:38.088Z,1.20
2022-10-19T00:39:06.297Z,1.52
2022-10-19T00:41:35.543Z,1.33
2022-10-19T00:44:03.645Z,1.40
2022-10-19T00:46:32.630Z,1.30
2022-10-19T00:49:10.798Z,1.92
2022-10-19T00:51:40.645Z,2.15
2022-10-19T00:54:09.027Z,1.33
2022-10-19T00:56:38.126Z,2.10
2022-10-19T00:59:06.179Z,1.40
2022-10-19T01:01:34.108Z,1.10
2022-10-19T01:04:01.501Z,1.35
2022-10-19T01:06:28.529Z,1.25
2022-10-19T01:08:55.026Z,1.00
2022-10-19T01:11:43.088Z,1.08
2022-10-19T01:14:21.718Z,2.13
2022-10-19T01:16:58.825Z,1.10
2022-10-19T01:19:38.185Z,1.50
2022-10-19T01:22:36.430Z,1.08
2022-10-19T01:25:23.001Z,1.23
2022-10-19T01:28:11.170Z,1.17
2022-10-19T01:30:57.426Z,1.77
2022-10-19T01:33:29.433Z,0.88
2022-10-19T01:36:05.900Z,0.77
2022-10-19T01:38:50.310Z,0.90
2022-10-19T01:41:38.020Z,0.90
2022-10-19T01:44:13.916Z,0.88
2022-10-19T01:46:43.641Z,1.02
2022-10-19T01:49:28.298Z,1.30
2022-10-19T01:51:59.844Z,1.17
2022-10-19T01:54:30.845Z,0.80
2022-10-19T01:56:59.949Z,0.68
2022-10-19T01:59:26.433Z,0.80
2022-10-19T02:01:54.662Z,1.15
2022-10-19T02:04:23.589Z,0.85
2022-10-19T02:06:52.876Z,0.70
2022-10-19T02:09:20.149Z,0.90
2022-10-19T02:11:56.923Z,0.80
2022-10-19T02:14:29.301Z,0.88
2022-10-19T02:17:14.665Z,0.80
2022-10-19T02:19:41.565Z,1.00
2022-10-19T02:22:08.202Z,0.90
2022-10-19T02:24:34.595Z,0.60
2022-10-19T02:27:04.746Z,0.80
2022-10-19T02:29:33.285Z,0.88
2022-10-19T02:32:00.948Z,0.90
2022-10-19T02:34:27.754Z,0.70
2022-10-19T02:36:55.175Z,0.50
2022-10-19T02:39:22.245Z,1.00
2022-10-19T02:42:12.614Z,0.68
2022-10-19T02:44:57.326Z,0.63
2022-10-19T02:47:47.807Z,1.05
2022-10-19T02:50:14.428Z,1.02
2022-10-19T02:52:41.328Z,0.70
2022-10-19T02:55:08.785Z,0.88
2022-10-19T02:57:36.043Z,0.80
2022-10-19T03:00:05.214Z,1.63
2022-10-19T03:02:31.621Z,0.98
2022-10-19T03:04:58.062Z,0.73
2022-10-19T03:07:25.150Z,0.80
2022-10-19T03:09:51.522Z,0.90
2022-10-19T03:12:18.490Z,1.08
2022-10-19T03:14:44.822Z,0.90
2022-10-19T03:17:11.410Z,0.90
2022-10-19T03:19:38.000Z,1.42
2022-10-19T03:22:04.645Z,0.85
2022-10-19T03:24:32.035Z,1.15
2022-10-19T03:26:58.414Z,1.48
2022-10-19T03:29:24.953Z,1.10
2022-10-19T03:31:51.273Z,1.00
2022-10-19T03:34:17.639Z,1.13
2022-10-19T03:36:44.006Z,1.00
2022-10-19T03:39:13.655Z,0.80
2022-10-19T03:41:40.806Z,1.13
2022-10-19T03:44:08.203Z,0.90
2022-10-19T03:46:35.428Z,0.90
2022-10-19T03:49:02.285Z,0.88
2022-10-19T03:51:30.159Z,1.90
2022-10-19T03:53:59.989Z,1.02
2022-10-19T03:56:28.494Z,0.82
2022-10-19T03:58:56.480Z,0.88
2022-10-19T04:01:25.976Z,0.82
2022-10-19T04:04:04.021Z,1.20
2022-10-19T04:06:34.519Z,2.83
2022-10-19T04:09:01.659Z,1.42
2022-10-19T04:11:29.709Z,1.60
2022-10-19T04:13:57.610Z,1.38
2022-10-19T04:16:25.798Z,0.90
2022-10-19T04:18:53.198Z,2.13
2022-10-19T04:21:25.678Z,1.35
2022-10-19T04:23:54.497Z,0.93
2022-10-19T04:26:20.893Z,1.05
2022-10-19T04:28:47.382Z,1.27
2022-10-19T04:31:14.053Z,1.00
2022-10-19T04:33:40.940Z,1.40
2022-10-19T04:36:09.337Z,1.50
2022-10-19T04:38:36.597Z,1.20
2022-10-19T04:41:09.998Z,1.38
2022-10-19T04:43:36.949Z,1.45
2022-10-19T04:46:22.952Z,1.30
2022-10-19T04:48:49.541Z,1.10
2022-10-19T04:51:16.591Z,1.10
2022-10-19T04:53:43.526Z,1.27
2022-10-19T04:56:14.075Z,1.75
2022-10-19T04:58:40.695Z,0.95
2022-10-19T05:01:17.882Z,1.30
2022-10-19T05:03:44.947Z,1.50
2022-10-19T05:06:12.791Z,1.00
2022-10-19T05:08:39.269Z,1.17
2022-10-19T05:11:14.336Z,1.55
2022-10-19T05:13:41.257Z,1.20
2022-10-19T05:16:10.678Z,1.52
2022-10-19T05:18:37.015Z,2.17
2022-10-19T05:21:06.759Z,1.75
2022-10-19T05:26:06.126Z,0.80
2022-10-19T05:28:33.281Z,1.73
2022-10-19T05:31:14.466Z,1.30
2022-10-19T05:33:41.768Z,1.13
2022-10-19T05:36:12.224Z,1.45
2022-10-19T05:38:38.565Z,1.40
2022-10-19T05:41:05.029Z,1.05
2022-10-19T05:43:31.326Z,1.52
2022-10-19T05:45:57.649Z,1.60
2022-10-19T05:48:24.304Z,1.17
2022-10-19T05:50:55.172Z,1.80
2022-10-19T05:53:21.608Z,1.20
2022-10-19T05:55:47.960Z,1.35
2022-10-19T05:58:14.361Z,1.65
2022-10-19T06:00:40.740Z,1.50
2022-10-19T06:03:07.042Z,1.77
2022-10-19T06:05:36.389Z,1.60
2022-10-19T06:08:02.834Z,1.58
2022-10-19T06:10:29.173Z,1.98
2022-10-19T06:12:55.486Z,1.38
2022-10-19T06:15:21.829Z,1.40
2022-10-19T06:17:48.199Z,1.90
2022-10-19T06:20:14.672Z,2.15
2022-10-19T06:22:42.346Z,1.88
2022-10-19T06:25:09.080Z,1.40
2022-10-19T06:27:35.782Z,1.30
2022-10-19T06:30:02.904Z,1.30
2022-10-19T06:32:29.295Z,1.58
2022-10-19T06:34:56.657Z,1.50
2022-10-19T06:37:23.209Z,1.20
2022-10-19T06:39:49.617Z,1.15
2022-10-19T06:42:15.971Z,0.93
2022-10-19T06:44:42.291Z,1.45
2022-10-19T06:47:08.650Z,1.70
2022-10-19T06:49:35.818Z,1.27
2022-10-19T06:52:02.703Z,1.70
2022-10-19T06:54:29.437Z,1.15
2022-10-19T06:56:55.871Z,1.10
2022-10-19T06:59:22.303Z,0.93
2022-10-19T07:01:48.638Z,1.10
2022-10-19T07:04:15.042Z,1.25
2022-10-19T07:06:41.439Z,0.80
2022-10-19T07:09:07.875Z,0.95
2022-10-19T07:11:34.462Z,1.60
2022-10-19T07:14:00.866Z,0.77
2022-10-19T07:16:27.197Z,1.90
2022-10-19T07:18:53.934Z,1.00
2022-10-19T07:21:22.311Z,1.85
2022-10-19T07:23:48.878Z,2.55
2022-10-19T07:26:18.048Z,1.73
2022-10-19T07:28:46.990Z,1.60
2022-10-19T07:31:20.464Z,0.95
2022-10-19T07:33:47.757Z,1.13
2022-10-19T07:36:14.206Z,1.00
2022-10-19T07:38:41.341Z,1.65
2022-10-19T07:41:11.038Z,1.08
2022-10-19T07:43:37.400Z,1.10
2022-10-19T07:46:07.089Z,1.00
2022-10-19T07:48:34.702Z,1.42
2022-10-19T07:51:03.121Z,1.00
2022-10-19T07:53:29.564Z,1.00
2022-10-19T07:55:56.163Z,1.27
2022-10-19T07:58:22.550Z,1.65
2022-10-19T08:00:48.978Z,2.25
2022-10-19T08:06:03.413Z,1.50
2022-10-19T08:08:30.315Z,1.27
2022-10-19T08:10:57.273Z,1.13
2022-10-19T08:13:23.902Z,1.10
2022-10-19T08:15:50.329Z,1.67
2022-10-19T08:18:18.324Z,1.50
2022-10-19T08:20:44.983Z,1.60
2022-10-19T08:23:11.302Z,1.65
2022-10-19T08:25:37.688Z,2.30
2022-10-19T08:28:04.144Z,0.93
2022-10-19T08:30:30.455Z,2.53
2022-10-19T08:32:56.786Z,2.08
2022-10-19T08:35:23.209Z,1.40
2022-10-19T08:37:49.932Z,5.85
2022-10-19T08:40:24.019Z,1.88
2022-10-19T08:43:17.813Z,1.30
2022-10-19T08:46:17.143Z,1.58
2022-10-19T08:48:43.640Z,1.60
2022-10-19T08:51:13.014Z,1.02
2022-10-19T08:53:45.442Z,3.40
2022-10-19T08:56:51.549Z,1.17
2022-10-19T08:59:40.663Z,1.30
2022-10-19T09:02:13.673Z,1.98
2022-10-19T09:04:42.748Z,3.22
2022-10-19T09:07:24.329Z,2.17
2022-10-19T09:10:14.681Z,1.85
2022-10-19T09:12:59.198Z,1.27
2022-10-19T09:15:41.478Z,1.55
2022-10-19T09:18:13.818Z,1.40
2022-10-19T09:20:44.452Z,1.00
2022-10-19T09:23:34.016Z,1.25
2022-10-19T09:26:00.389Z,1.30
2022-10-19T09:28:43.726Z,1.38
2022-10-19T09:31:15.613Z,1.48
2022-10-19T09:33:45.209Z,1.10
2022-10-19T09:36:22.279Z,0.98
2022-10-19T09:38:50.142Z,3.28
2022-10-19T09:41:22.448Z,1.65
2022-10-19T09:43:53.823Z,1.45
2022-10-19T09:46:27.767Z,1.90
2022-10-19T09:48:54.150Z,0.82
2022-10-19T09:51:20.986Z,1.13
2022-10-19T09:53:51.836Z,0.70
2022-10-19T09:56:21.228Z,0.70
2022-10-19T09:58:50.208Z,1.15
2022-10-19T10:01:43.043Z,1.10
2022-10-19T10:04:14.794Z,1.00
2022-10-19T10:06:43.470Z,1.27
2022-10-19T10:09:23.676Z,1.15
2022-10-19T10:11:51.337Z,1.05
2022-10-19T10:14:25.709Z,2.78
2022-10-19T10:17:04.100Z,1.35
2022-10-19T10:19:32.933Z,0.77
2022-10-19T10:22:00.108Z,0.60
2022-10-19T10:24:29.113Z,0.50
2022-10-19T10:26:58.364Z,0.50
2022-10-19T10:29:29.830Z,0.57
2022-10-19T10:32:19.964Z,1.40
2022-10-19T10:35:01.075Z,1.20
2022-10-19T10:37:29.998Z,0.60
2022-10-19T10:40:00.524Z,0.82
2022-10-19T10:42:36.285Z,0.50
2022-10-19T10:47:30.007Z,0.77
2022-10-19T10:50:21.871Z,0.40
2022-10-19T10:53:02.715Z,0.77
2022-10-19T10:55:30.920Z,1.05
2022-10-19T10:58:15.787Z,1.17
2022-10-19T11:00:42.947Z,0.57
2022-10-19T11:03:26.079Z,0.80
2022-10-19T11:06:00.364Z,1.63
2022-10-19T11:08:59.779Z,2.08
2022-10-19T11:11:39.370Z,0.95
2022-10-19T11:14:17.609Z,1.58
2022-10-19T11:16:47.737Z,0.70
2022-10-19T11:19:18.168Z,0.60
2022-10-19T11:21:55.948Z,0.60
2022-10-19T11:24:26.396Z,0.90
2022-10-19T11:27:21.788Z,2.13
2022-10-19T11:30:18.360Z,0.77
2022-10-19T11:32:56.864Z,0.50
2022-10-19T11:35:54.462Z,0.60
2022-10-19T11:38:30.061Z,0.77
2022-10-19T11:41:23.403Z,0.90
2022-10-19T11:44:17.699Z,1.00
2022-10-19T11:46:59.055Z,1.50
2022-10-19T11:49:40.082Z,0.70
2022-10-19T11:52:23.668Z,0.90
2022-10-19T11:55:19.382Z,0.70
2022-10-19T11:57:48.750Z,3.25
2022-10-19T12:00:37.580Z,1.20
2022-10-19T12:03:49.668Z,0.82
2022-10-19T12:06:31.620Z,0.93
2022-10-19T12:11:58.030Z,0.90
2022-10-19T12:14:30.264Z,0.82
2022-10-19T12:17:02.058Z,0.82
2022-10-19T12:19:40.653Z,1.10
2022-10-19T12:22:15.242Z,1.00
2022-10-19T12:24:41.637Z,2.63
2022-10-19T12:27:13.629Z,3.83
2022-10-19T12:29:44.259Z,2.13
2022-10-19T12:32:15.092Z,1.45
2022-10-19T12:34:48.888Z,1.77
2022-10-19T12:37:47.218Z,0.82
2022-10-19T12:40:25.309Z,0.88
2022-10-19T12:43:13.198Z,0.70
2022-10-19T12:45:45.113Z,0.60
2022-10-19T12:48:15.889Z,1.02
2022-10-19T12:50:48.342Z,0.65
2022-10-19T12:53:38.546Z,0.93
2022-10-19T12:56:26.788Z,0.50
2022-10-19T12:58:59.730Z,1.58
2022-10-19T13:01:41.095Z,0.50
2022-10-19T13:04:15.670Z,1.48
2022-10-19T13:06:51.174Z,0.75
2022-10-19T13:09:36.289Z,3.67
2022-10-19T13:12:19.346Z,0.90
2022-10-19T13:14:48.054Z,0.73
2022-10-19T13:17:50.978Z,0.75
2022-10-19T13:20:17.285Z,0.65
2022-10-19T13:22:50.741Z,0.50
2022-10-19T13:25:17.176Z,0.68
2022-10-19T13:27:44.886Z,0.50
2022-10-19T13:30:39.257Z,0.60
2022-10-19T13:33:31.248Z,0.60
2022-10-19T13:36:00.446Z,0.50
2022-10-19T13:38:34.015Z,0.50
2022-10-19T13:41:09.098Z,0.57
2022-10-19T13:43:50.258Z,0.32
2022-10-19T13:46:21.286Z,0.73
2022-10-19T13:49:17.750Z,0.52
2022-10-19T13:52:08.326Z,0.30
2022-10-19T13:54:43.855Z,0.70
2022-10-19T13:57:16.260Z,0.60
2022-10-19T13:59:45.474Z,0.50
2022-10-19T14:02:37.396Z,0.50
2022-10-19T14:07:55.147Z,1.70
2022-10-19T14:10:28.283Z,0.82
2022-10-19T14:13:00.662Z,0.80
2022-10-19T14:15:30.798Z,0.70
2022-10-19T14:17:59.551Z,0.50
2022-10-19T14:20:37.616Z,0.50
2022-10-19T14:23:28.703Z,0.70
2022-10-19T14:26:03.322Z,0.70
2022-10-19T14:28:30.783Z,0.68
2022-10-19T14:31:01.132Z,0.52
2022-10-19T14:33:34.260Z,0.50
2022-10-19T14:36:01.420Z,0.77
2022-10-19T14:38:39.875Z,0.50
2022-10-19T14:41:19.015Z,0.68
2022-10-19T14:43:45.539Z,0.45
2022-10-19T14:46:16.196Z,0.50
2022-10-19T14:48:48.639Z,0.47
2022-10-19T14:51:27.101Z,1.40
2022-10-19T14:54:05.228Z,1.30
2022-10-19T14:56:42.787Z,0.82
2022-10-19T14:59:18.350Z,0.60
2022-10-19T15:01:50.432Z,0.70
2022-10-19T15:04:28.233Z,0.40
2022-10-19T15:06:55.770Z,0.63
2022-10-19T15:09:48.651Z,0.68
2022-10-19T15:12:21.364Z,0.63
2022-10-19T15:14:48.567Z,0.50
2022-10-19T15:17:28.166Z,0.90
2022-10-19T15:19:56.077Z,0.45
2022-10-19T15:22:24.076Z,0.80
2022-10-19T15:24:55.643Z,0.47
2022-10-19T15:27:29.064Z,0.63
2022-10-19T15:29:57.005Z,0.68
2022-10-19T15:32:45.176Z,0.68
2022-10-19T15:35:19.769Z,0.80
2022-10-19T15:37:49.003Z,0.82
2022-10-19T15:40:36.099Z,0.75
2022-10-19T15:43:34.669Z,0.80
2022-10-19T15:46:20.973Z,0.70
2022-10-19T15:48:58.296Z,0.80
2022-10-19T15:51:24.605Z,0.70
2022-10-19T15:54:02.644Z,0.73
2022-10-19T15:56:31.093Z,0.70
2022-10-19T15:58:59.456Z,0.90
2022-10-19T16:01:28.259Z,0.70
2022-10-19T16:03:55.278Z,0.70
2022-10-19T16:06:24.488Z,1.25
2022-10-19T16:08:51.279Z,0.80
2022-10-19T16:11:24.277Z,0.80
2022-10-19T16:13:51.010Z,0.63
2022-10-19T16:16:29.694Z,1.10
2022-10-19T16:18:56.844Z,1.20
2022-10-19T16:21:32.579Z,1.15
2022-10-19T16:23:59.490Z,0.85
2022-10-19T16:26:26.440Z,0.80
2022-10-19T16:28:54.273Z,0.82
2022-10-19T16:31:21.585Z,1.10
2022-10-19T16:33:47.963Z,0.82
2022-10-19T16:36:14.872Z,0.70
2022-10-19T16:38:41.250Z,0.80
2022-10-19T16:41:10.160Z,1.33
2022-10-19T16:43:37.155Z,1.05
2022-10-19T16:46:04.655Z,0.90
2022-10-19T16:48:31.819Z,0.80
2022-10-19T16:51:07.068Z,1.10
2022-10-19T16:53:34.262Z,0.90
2022-10-19T16:56:05.711Z,1.75
2022-10-19T16:58:32.100Z,1.42
2022-10-19T17:01:01.392Z,1.00
2022-10-19T17:03:30.872Z,1.95
2022-10-19T17:05:57.191Z,1.10
2022-10-19T17:08:36.586Z,1.52
2022-10-19T17:11:18.767Z,1.23
2022-10-19T17:13:47.811Z,1.33
2022-10-19T17:16:15.009Z,1.20
2022-10-19T17:18:42.965Z,1.50
2022-10-19T17:21:13.091Z,1.15
2022-10-19T17:23:40.231Z,1.45
2022-10-19T17:26:08.080Z,1.15
2022-10-19T17:28:35.763Z,1.10
2022-10-19T17:31:07.556Z,1.27
2022-10-19T17:36:10.562Z,1.98
2022-10-19T17:38:37.888Z,1.50
2022-10-19T17:41:07.655Z,1.60
2022-10-19T17:43:35.203Z,1.42
2022-10-19T17:46:02.984Z,2.10
2022-10-19T17:48:29.860Z,1.70
2022-10-19T17:50:58.044Z,1.35
2022-10-19T17:53:24.556Z,1.48
2022-10-19T17:55:50.919Z,1.80
2022-10-19T17:58:17.483Z,2.40
2022-10-19T18:00:43.998Z,1.95
2022-10-19T18:03:10.522Z,1.90
2022-10-19T18:05:37.087Z,2.10
2022-10-19T18:08:03.413Z,1.70
2022-10-19T18:10:29.754Z,2.72
2022-10-19T18:12:56.152Z,2.42
2022-10-19T18:15:22.511Z,2.90
2022-10-19T18:17:48.851Z,3.53
2022-10-19T18:20:15.329Z,3.00
2022-10-19T18:25:09.357Z,3.75
2022-10-19T18:27:36.073Z,3.60
2022-10-19T18:30:02.894Z,4.13
2022-10-19T18:32:29.338Z,4.32
2022-10-19T18:34:55.745Z,4.32
2022-10-19T18:37:22.152Z,4.45
2022-10-19T18:39:48.466Z,4.68
2022-10-19T18:42:14.884Z,4.15
2022-10-19T18:44:41.249Z,4.50
2022-10-19T18:47:07.589Z,5.30
2022-10-19T18:49:34.289Z,6.15
2022-10-19T18:52:00.858Z,6.32
2022-10-19T18:54:27.918Z,7.45
2022-10-19T18:56:55.193Z,7.45
2022-10-19T18:59:21.669Z,6.43
2022-10-19T19:01:48.071Z,7.43
2022-10-19T19:04:14.648Z,7.15
2022-10-19T19:06:41.957Z,6.65
2022-10-19T19:09:10.837Z,6.10
2022-10-19T19:11:40.675Z,6.47
2022-10-19T19:14:12.784Z,5.63
2022-10-19T19:16:40.886Z,5.82
2022-10-19T19:19:08.525Z,5.50
2022-10-19T19:21:36.628Z,5.43
2022-10-19T19:24:05.753Z,4.03
2022-10-19T19:26:36.816Z,3.97
2022-10-19T19:29:05.169Z,2.50
2022-10-19T19:31:31.611Z,2.35
2022-10-19T19:34:01.035Z,2.20
2022-10-19T19:36:28.217Z,2.13
2022-10-19T19:38:56.460Z,2.40
2022-10-19T19:41:22.883Z,2.80
2022-10-19T19:43:49.246Z,2.50
2022-10-19T19:46:18.142Z,2.35
2022-10-19T19:48:47.173Z,2.20
2022-10-19T19:51:19.735Z,2.78
2022-10-19T19:53:47.339Z,3.05
2022-10-19T19:56:16.046Z,1.85
2022-10-19T19:58:43.114Z,2.47
2022-10-19T20:01:20.471Z,2.55
2022-10-19T20:03:47.673Z,1.75
2022-10-19T20:06:17.265Z,2.17
2022-10-19T20:08:45.387Z,2.05
2022-10-19T20:11:14.371Z,1.88
2022-10-19T20:13:40.741Z,1.48
2022-10-19T20:16:09.692Z,1.90
2022-10-19T20:18:36.145Z,1.90
2022-10-19T20:21:04.675Z,1.65
2022-10-19T20:23:31.830Z,1.58
2022-10-19T20:25:58.241Z,1.50
2022-10-19T20:28:26.153Z,1.83
2022-10-19T20:31:03.642Z,1.80
2022-10-19T20:33:31.788Z,1.70
2022-10-19T20:36:08.112Z,2.42
2022-10-19T20:38:35.834Z,1.70
2022-10-19T20:41:08.188Z,1.52
2022-10-19T20:43:36.283Z,1.90
2022-10-19T20:46:07.937Z,1.73
2022-10-19T20:51:11.635Z,1.90
2022-10-19T20:53:38.595Z,1.75
2022-10-19T20:56:10.115Z,2.00
2022-10-19T20:58:42.615Z,1.90
2022-10-19T21:01:19.224Z,1.73
2022-10-19T21:04:00.701Z,1.58
2022-10-19T21:06:29.657Z,2.17
2022-10-19T21:08:56.448Z,1.70
2022-10-19T21:11:27.098Z,1.98
2022-10-19T21:13:55.980Z,1.80
2022-10-19T21:16:24.298Z,1.80
2022-10-19T21:18:50.801Z,1.90
2022-10-19T21:21:20.185Z,1.60
2022-10-19T21:23:49.309Z,2.00
2022-10-19T21:26:16.708Z,1.90
2022-10-19T21:28:47.752Z,1.65
2022-10-19T21:31:15.657Z,1.50
2022-10-19T21:33:42.276Z,1.52
2022-10-19T21:36:09.762Z,1.80
2022-10-19T21:38:36.515Z,1.30
2022-10-19T21:41:05.739Z,1.48
2022-10-19T21:43:32.966Z,1.70
2022-10-19T21:46:02.674Z,1.58
2022-10-19T21:48:29.931Z,1.85
2022-10-19T21:50:56.397Z,1.40
2022-10-19T21:53:25.945Z,1.77
2022-10-19T21:55:53.667Z,1.95
2022-10-19T21:58:22.895Z,1.40
2022-10-19T22:00:49.737Z,1.40
2022-10-19T22:03:18.863Z,1.70
2022-10-19T22:05:52.148Z,1.52
2022-10-19T22:08:18.467Z,1.65
2022-10-19T22:10:44.787Z,1.65
2022-10-19T22:13:11.111Z,1.50
2022-10-19T22:15:39.067Z,1.80
2022-10-19T22:18:05.436Z,1.50
2022-10-19T22:20:32.253Z,1.58
2022-10-19T22:22:58.590Z,1.10
2022-10-19T22:25:24.914Z,1.50
2022-10-19T22:27:51.232Z,1.40
2022-10-19T22:30:17.604Z,1.40
2022-10-19T22:32:44.017Z,1.70
2022-10-19T22:35:10.366Z,1.58
2022-10-19T22:37:36.724Z,2.00
2022-10-19T22:40:03.465Z,1.70
2022-10-19T22:42:29.768Z,1.60
2022-10-19T22:44:56.160Z,1.52
2022-10-19T22:47:22.525Z,1.35
2022-10-19T22:49:48.892Z,1.23
2022-10-19T22:52:16.574Z,1.60
2022-10-19T22:54:43.266Z,1.48
2022-10-19T22:57:10.317Z,1.35
2022-10-19T22:59:36.677Z,1.50
2022-10-19T23:02:03.623Z,1.60
2022-10-19T23:04:30.152Z,1.55
2022-10-19T23:06:56.560Z,1.40
2022-10-19T23:09:23.081Z,1.30
2022-10-19T23:11:49.423Z,1.80
2022-10-19T23:14:15.927Z,2.05
2022-10-19T23:16:42.252Z,1.60
2022-10-19T23:19:08.562Z,1.55
2022-10-19T23:21:34.939Z,1.88
2022-10-19T23:24:01.333Z,1.55
2022-10-19T23:26:27.652Z,1.48
2022-10-19T23:28:54.039Z,1.55
2022-10-19T23:31:24.614Z,1.65
2022-10-19T23:33:52.345Z,1.60
2022-10-19T23:36:27.873Z,2.15
2022-10-19T23:38:56.161Z,1.60
2022-10-19T23:41:22.710Z,1.90
2022-10-19T23:43:49.107Z,1.40
2022-10-19T23:46:15.538Z,1.70
2022-10-19T23:48:42.144Z,1.58
2022-10-19T23:51:12.262Z,1.60
2022-10-19T23:53:41.427Z,2.35
2022-10-19T23:56:14.705Z,1.90
2022-10-19T23:58:41.073Z,2.28
